sensor_id;sensor_type;location;lat;lon;timestamp;P1;durP1;ratioP1;P2;durP2;ratioP2
9898;SDS011;4988;49.238;6.698;2022-12-18T00:00:58;40.05;;;17.63;;
9898;SDS011;4988;49.238;6.698;2022-12-18T00:03:23;35.50;;;15.47;;
9898;SDS011;4988;49.238;6.698;2022-12-18T00:05:51;38.50;;;16.60;;
9898;SDS011;4988;49.238;6.698;2022-12-18T00:08:17;35.22;;;15.38;;
9898;SDS011;4988;49.238;6.698;2022-12-18T00:10:43;39.17;;;16.23;;
9898;SDS011;4988;49.238;6.698;2022-12-18T00:13:10;41.67;;;16.88;;
9898;SDS011;4988;49.238;6.698;2022-12-18T00:15:38;35.58;;;15.43;;
9898;SDS011;4988;49.238;6.698;2022-12-18T00:18:04;39.25;;;15.80;;
9898;SDS011;4988;49.238;6.698;2022-12-18T00:20:31;47.35;;;17.13;;
9898;SDS011;4988;49.238;6.698;2022-12-18T00:23:01;38.72;;;16.58;;
9898;SDS011;4988;49.238;6.698;2022-12-18T00:25:28;43.05;;;16.77;;
9898;SDS011;4988;49.238;6.698;2022-12-18T00:27:54;40.50;;;16.98;;
9898;SDS011;4988;49.238;6.698;2022-12-18T00:30:20;40.47;;;17.43;;
9898;SDS011;4988;49.238;6.698;2022-12-18T00:32:46;40.67;;;15.68;;
9898;SDS011;4988;49.238;6.698;2022-12-18T00:35:12;41.38;;;18.02;;
9898;SDS011;4988;49.238;6.698;2022-12-18T00:37:38;39.78;;;16.42;;
9898;SDS011;4988;49.238;6.698;2022-12-18T00:40:03;37.90;;;16.47;;
9898;SDS011;4988;49.238;6.698;2022-12-18T00:42:29;35.83;;;15.50;;
9898;SDS011;4988;49.238;6.698;2022-12-18T00:45:13;37.00;;;16.38;;
9898;SDS011;4988;49.238;6.698;2022-12-18T00:47:39;34.03;;;15.57;;
9898;SDS011;4988;49.238;6.698;2022-12-18T00:50:06;40.97;;;17.33;;
9898;SDS011;4988;49.238;6.698;2022-12-18T00:52:32;38.95;;;17.58;;
9898;SDS011;4988;49.238;6.698;2022-12-18T00:54:59;38.38;;;16.38;;
9898;SDS011;4988;49.238;6.698;2022-12-18T00:57:24;39.97;;;16.73;;
9898;SDS011;4988;49.238;6.698;2022-12-18T00:59:51;39.33;;;17.05;;
9898;SDS011;4988;49.238;6.698;2022-12-18T01:02:16;43.63;;;17.03;;
9898;SDS011;4988;49.238;6.698;2022-12-18T01:04:41;44.57;;;18.07;;
9898;SDS011;4988;49.238;6.698;2022-12-18T01:07:07;42.67;;;18.63;;
9898;SDS011;4988;49.238;6.698;2022-12-18T01:09:33;45.67;;;17.37;;
9898;SDS011;4988;49.238;6.698;2022-12-18T01:11:59;40.88;;;17.25;;
9898;SDS011;4988;49.238;6.698;2022-12-18T01:14:26;41.90;;;18.55;;
9898;SDS011;4988;49.238;6.698;2022-12-18T01:16:53;40.75;;;18.15;;
9898;SDS011;4988;49.238;6.698;2022-12-18T01:19:20;42.50;;;18.02;;
9898;SDS011;4988;49.238;6.698;2022-12-18T01:21:47;45.65;;;18.25;;
9898;SDS011;4988;49.238;6.698;2022-12-18T01:24:12;40.37;;;17.77;;
9898;SDS011;4988;49.238;6.698;2022-12-18T01:26:38;44.13;;;17.60;;
9898;SDS011;4988;49.238;6.698;2022-12-18T01:29:04;44.92;;;18.38;;
9898;SDS011;4988;49.238;6.698;2022-12-18T01:31:30;44.17;;;18.37;;
9898;SDS011;4988;49.238;6.698;2022-12-18T01:33:57;49.03;;;18.95;;
9898;SDS011;4988;49.238;6.698;2022-12-18T01:36:31;46.08;;;18.27;;
9898;SDS011;4988;49.238;6.698;2022-12-18T01:39:00;45.60;;;18.23;;
9898;SDS011;4988;49.238;6.698;2022-12-18T01:41:31;46.63;;;18.08;;
9898;SDS011;4988;49.238;6.698;2022-12-18T01:49:48;38.05;;;17.75;;
9898;SDS011;4988;49.238;6.698;2022-12-18T01:52:14;43.20;;;18.10;;
9898;SDS011;4988;49.238;6.698;2022-12-18T01:54:42;42.03;;;18.50;;
9898;SDS011;4988;49.238;6.698;2022-12-18T01:57:08;45.40;;;18.70;;
9898;SDS011;4988;49.238;6.698;2022-12-18T01:59:34;49.90;;;18.67;;
9898;SDS011;4988;49.238;6.698;2022-12-18T02:02:02;44.97;;;19.15;;
9898;SDS011;4988;49.238;6.698;2022-12-18T02:04:28;39.75;;;18.27;;
9898;SDS011;4988;49.238;6.698;2022-12-18T02:09:33;40.33;;;17.23;;
9898;SDS011;4988;49.238;6.698;2022-12-18T02:12:05;44.85;;;18.25;;
9898;SDS011;4988;49.238;6.698;2022-12-18T02:14:46;43.58;;;18.90;;
9898;SDS011;4988;49.238;6.698;2022-12-18T02:17:22;45.72;;;17.50;;
9898;SDS011;4988;49.238;6.698;2022-12-18T02:20:05;45.88;;;18.45;;
9898;SDS011;4988;49.238;6.698;2022-12-18T02:27:55;46.63;;;18.35;;
9898;SDS011;4988;49.238;6.698;2022-12-18T02:30:26;44.95;;;17.58;;
9898;SDS011;4988;49.238;6.698;2022-12-18T02:32:56;47.58;;;19.23;;
9898;SDS011;4988;49.238;6.698;2022-12-18T02:35:25;47.33;;;18.40;;
9898;SDS011;4988;49.238;6.698;2022-12-18T02:37:54;45.58;;;19.13;;
9898;SDS011;4988;49.238;6.698;2022-12-18T02:40:23;49.25;;;18.98;;
9898;SDS011;4988;49.238;6.698;2022-12-18T02:42:51;49.33;;;18.45;;
9898;SDS011;4988;49.238;6.698;2022-12-18T02:45:17;53.38;;;19.17;;
9898;SDS011;4988;49.238;6.698;2022-12-18T02:47:44;42.87;;;18.63;;
9898;SDS011;4988;49.238;6.698;2022-12-18T02:50:21;51.90;;;20.30;;
9898;SDS011;4988;49.238;6.698;2022-12-18T02:53:00;48.47;;;18.58;;
9898;SDS011;4988;49.238;6.698;2022-12-18T02:55:49;49.28;;;19.40;;
9898;SDS011;4988;49.238;6.698;2022-12-18T02:58:41;50.45;;;18.65;;
9898;SDS011;4988;49.238;6.698;2022-12-18T03:01:32;51.95;;;19.55;;
9898;SDS011;4988;49.238;6.698;2022-12-18T03:04:04;51.08;;;19.85;;
9898;SDS011;4988;49.238;6.698;2022-12-18T03:06:40;52.85;;;20.70;;
9898;SDS011;4988;49.238;6.698;2022-12-18T03:09:10;48.10;;;19.17;;
9898;SDS011;4988;49.238;6.698;2022-12-18T03:11:42;51.45;;;19.73;;
9898;SDS011;4988;49.238;6.698;2022-12-18T03:14:32;48.75;;;18.70;;
9898;SDS011;4988;49.238;6.698;2022-12-18T03:17:04;43.20;;;17.70;;
9898;SDS011;4988;49.238;6.698;2022-12-18T03:19:34;47.78;;;18.88;;
9898;SDS011;4988;49.238;6.698;2022-12-18T03:22:01;44.75;;;18.13;;
9898;SDS011;4988;49.238;6.698;2022-12-18T03:24:29;42.72;;;18.23;;
9898;SDS011;4988;49.238;6.698;2022-12-18T03:27:02;49.00;;;17.98;;
9898;SDS011;4988;49.238;6.698;2022-12-18T03:32:54;44.40;;;18.70;;
9898;SDS011;4988;49.238;6.698;2022-12-18T03:35:29;47.25;;;18.73;;
9898;SDS011;4988;49.238;6.698;2022-12-18T03:37:58;45.55;;;18.48;;
9898;SDS011;4988;49.238;6.698;2022-12-18T03:40:26;45.27;;;18.33;;
9898;SDS011;4988;49.238;6.698;2022-12-18T03:43:03;43.95;;;17.60;;
9898;SDS011;4988;49.238;6.698;2022-12-18T03:45:47;45.08;;;17.88;;
9898;SDS011;4988;49.238;6.698;2022-12-18T03:50:59;45.13;;;18.63;;
9898;SDS011;4988;49.238;6.698;2022-12-18T03:53:37;47.70;;;18.65;;
9898;SDS011;4988;49.238;6.698;2022-12-18T03:56:10;43.78;;;17.95;;
9898;SDS011;4988;49.238;6.698;2022-12-18T03:58:37;47.38;;;18.63;;
9898;SDS011;4988;49.238;6.698;2022-12-18T04:01:05;44.35;;;18.65;;
9898;SDS011;4988;49.238;6.698;2022-12-18T04:03:33;49.83;;;19.08;;
9898;SDS011;4988;49.238;6.698;2022-12-18T04:06:00;49.65;;;19.20;;
9898;SDS011;4988;49.238;6.698;2022-12-18T04:08:27;45.17;;;18.10;;
9898;SDS011;4988;49.238;6.698;2022-12-18T04:10:53;47.17;;;17.65;;
9898;SDS011;4988;49.238;6.698;2022-12-18T04:13:37;48.80;;;18.57;;
9898;SDS011;4988;49.238;6.698;2022-12-18T04:16:03;57.00;;;19.80;;
9898;SDS011;4988;49.238;6.698;2022-12-18T04:18:29;48.67;;;19.03;;
9898;SDS011;4988;49.238;6.698;2022-12-18T04:20:55;49.63;;;19.67;;
9898;SDS011;4988;49.238;6.698;2022-12-18T04:23:20;51.13;;;18.87;;
9898;SDS011;4988;49.238;6.698;2022-12-18T04:25:46;46.97;;;18.90;;
9898;SDS011;4988;49.238;6.698;2022-12-18T04:28:12;47.50;;;19.00;;
9898;SDS011;4988;49.238;6.698;2022-12-18T04:30:37;50.00;;;19.03;;
9898;SDS011;4988;49.238;6.698;2022-12-18T04:33:02;47.57;;;18.97;;
9898;SDS011;4988;49.238;6.698;2022-12-18T04:35:28;61.07;;;20.40;;
9898;SDS011;4988;49.238;6.698;2022-12-18T04:37:53;53.50;;;19.63;;
9898;SDS011;4988;49.238;6.698;2022-12-18T04:40:18;57.30;;;19.90;;
9898;SDS011;4988;49.238;6.698;2022-12-18T04:42:44;51.53;;;20.10;;
9898;SDS011;4988;49.238;6.698;2022-12-18T04:45:09;55.63;;;20.00;;
9898;SDS011;4988;49.238;6.698;2022-12-18T04:47:35;56.63;;;20.17;;
9898;SDS011;4988;49.238;6.698;2022-12-18T04:50:00;48.80;;;19.30;;
9898;SDS011;4988;49.238;6.698;2022-12-18T04:52:25;43.23;;;18.57;;
9898;SDS011;4988;49.238;6.698;2022-12-18T04:54:51;51.57;;;19.73;;
9898;SDS011;4988;49.238;6.698;2022-12-18T04:57:16;58.33;;;19.80;;
9898;SDS011;4988;49.238;6.698;2022-12-18T04:59:43;50.67;;;19.58;;
9898;SDS011;4988;49.238;6.698;2022-12-18T05:02:08;53.93;;;20.57;;
9898;SDS011;4988;49.238;6.698;2022-12-18T05:04:34;58.57;;;20.90;;
9898;SDS011;4988;49.238;6.698;2022-12-18T05:06:59;47.73;;;19.07;;
9898;SDS011;4988;49.238;6.698;2022-12-18T05:09:24;49.27;;;19.93;;
9898;SDS011;4988;49.238;6.698;2022-12-18T05:11:50;51.50;;;20.10;;
9898;SDS011;4988;49.238;6.698;2022-12-18T05:14:15;47.73;;;19.03;;
9898;SDS011;4988;49.238;6.698;2022-12-18T05:16:40;51.63;;;19.53;;
9898;SDS011;4988;49.238;6.698;2022-12-18T05:19:05;53.47;;;19.70;;
9898;SDS011;4988;49.238;6.698;2022-12-18T05:21:31;44.83;;;18.93;;
9898;SDS011;4988;49.238;6.698;2022-12-18T05:23:56;47.43;;;18.03;;
9898;SDS011;4988;49.238;6.698;2022-12-18T05:26:21;42.53;;;17.53;;
9898;SDS011;4988;49.238;6.698;2022-12-18T05:28:47;46.13;;;18.10;;
9898;SDS011;4988;49.238;6.698;2022-12-18T05:31:12;45.90;;;16.90;;
9898;SDS011;4988;49.238;6.698;2022-12-18T05:33:38;51.40;;;17.60;;
9898;SDS011;4988;49.238;6.698;2022-12-18T05:36:05;42.97;;;17.60;;
9898;SDS011;4988;49.238;6.698;2022-12-18T05:38:32;45.38;;;17.45;;
9898;SDS011;4988;49.238;6.698;2022-12-18T05:40:59;45.72;;;17.50;;
9898;SDS011;4988;49.238;6.698;2022-12-18T05:43:25;43.03;;;17.53;;
9898;SDS011;4988;49.238;6.698;2022-12-18T05:45:51;47.03;;;18.25;;
9898;SDS011;4988;49.238;6.698;2022-12-18T05:48:17;39.10;;;16.38;;
9898;SDS011;4988;49.238;6.698;2022-12-18T05:50:44;45.50;;;17.77;;
9898;SDS011;4988;49.238;6.698;2022-12-18T05:53:10;50.25;;;18.38;;
9898;SDS011;4988;49.238;6.698;2022-12-18T05:55:37;48.30;;;19.27;;
9898;SDS011;4988;49.238;6.698;2022-12-18T05:58:04;53.60;;;19.45;;
9898;SDS011;4988;49.238;6.698;2022-12-18T06:00:31;48.50;;;18.00;;
9898;SDS011;4988;49.238;6.698;2022-12-18T06:02:57;51.03;;;19.15;;
9898;SDS011;4988;49.238;6.698;2022-12-18T06:05:23;50.23;;;18.10;;
9898;SDS011;4988;49.238;6.698;2022-12-18T06:07:48;51.47;;;17.97;;
9898;SDS011;4988;49.238;6.698;2022-12-18T06:10:13;48.77;;;18.57;;
9898;SDS011;4988;49.238;6.698;2022-12-18T06:12:39;45.77;;;17.80;;
9898;SDS011;4988;49.238;6.698;2022-12-18T06:15:04;53.17;;;19.10;;
9898;SDS011;4988;49.238;6.698;2022-12-18T06:17:30;41.97;;;17.20;;
9898;SDS011;4988;49.238;6.698;2022-12-18T06:19:56;48.85;;;18.10;;
9898;SDS011;4988;49.238;6.698;2022-12-18T06:22:22;49.07;;;19.83;;
9898;SDS011;4988;49.238;6.698;2022-12-18T06:24:47;51.70;;;18.67;;
9898;SDS011;4988;49.238;6.698;2022-12-18T06:27:13;47.83;;;18.60;;
9898;SDS011;4988;49.238;6.698;2022-12-18T06:29:38;47.50;;;17.90;;
9898;SDS011;4988;49.238;6.698;2022-12-18T06:32:04;47.83;;;18.40;;
9898;SDS011;4988;49.238;6.698;2022-12-18T06:34:31;51.63;;;18.43;;
9898;SDS011;4988;49.238;6.698;2022-12-18T06:36:57;48.90;;;19.08;;
9898;SDS011;4988;49.238;6.698;2022-12-18T06:39:22;46.10;;;18.50;;
9898;SDS011;4988;49.238;6.698;2022-12-18T06:41:48;46.40;;;19.03;;
9898;SDS011;4988;49.238;6.698;2022-12-18T06:44:13;50.13;;;18.10;;
9898;SDS011;4988;49.238;6.698;2022-12-18T06:46:38;44.07;;;17.97;;
9898;SDS011;4988;49.238;6.698;2022-12-18T06:49:04;50.33;;;19.13;;
9898;SDS011;4988;49.238;6.698;2022-12-18T06:51:29;43.17;;;17.13;;
9898;SDS011;4988;49.238;6.698;2022-12-18T06:53:55;50.00;;;17.33;;
9898;SDS011;4988;49.238;6.698;2022-12-18T06:56:20;49.17;;;17.80;;
9898;SDS011;4988;49.238;6.698;2022-12-18T06:58:45;49.57;;;19.67;;
9898;SDS011;4988;49.238;6.698;2022-12-18T07:01:11;41.93;;;16.97;;
9898;SDS011;4988;49.238;6.698;2022-12-18T07:03:40;45.63;;;17.65;;
9898;SDS011;4988;49.238;6.698;2022-12-18T07:06:11;43.35;;;18.20;;
9898;SDS011;4988;49.238;6.698;2022-12-18T07:08:41;47.22;;;18.02;;
9898;SDS011;4988;49.238;6.698;2022-12-18T07:11:07;42.57;;;16.37;;
9898;SDS011;4988;49.238;6.698;2022-12-18T07:13:32;46.57;;;16.90;;
9898;SDS011;4988;49.238;6.698;2022-12-18T07:16:31;46.10;;;16.50;;
9898;SDS011;4988;49.238;6.698;2022-12-18T07:18:49;42.13;;;16.38;;
9898;SDS011;4988;49.238;6.698;2022-12-18T07:21:17;46.63;;;16.60;;
9898;SDS011;4988;49.238;6.698;2022-12-18T07:23:44;45.38;;;17.40;;
9898;SDS011;4988;49.238;6.698;2022-12-18T07:26:13;41.70;;;16.15;;
9898;SDS011;4988;49.238;6.698;2022-12-18T07:28:39;40.30;;;15.75;;
9898;SDS011;4988;49.238;6.698;2022-12-18T07:31:10;46.38;;;18.70;;
9898;SDS011;4988;49.238;6.698;2022-12-18T07:33:37;45.53;;;17.33;;
9898;SDS011;4988;49.238;6.698;2022-12-18T07:36:03;43.47;;;16.47;;
9898;SDS011;4988;49.238;6.698;2022-12-18T07:38:31;45.22;;;18.35;;
9898;SDS011;4988;49.238;6.698;2022-12-18T07:41:00;45.08;;;18.23;;
9898;SDS011;4988;49.238;6.698;2022-12-18T07:43:30;45.67;;;17.40;;
9898;SDS011;4988;49.238;6.698;2022-12-18T07:45:56;48.37;;;18.73;;
9898;SDS011;4988;49.238;6.698;2022-12-18T07:48:21;54.40;;;19.90;;
9898;SDS011;4988;49.238;6.698;2022-12-18T07:50:46;52.13;;;19.57;;
9898;SDS011;4988;49.238;6.698;2022-12-18T07:53:12;57.03;;;21.27;;
9898;SDS011;4988;49.238;6.698;2022-12-18T07:55:37;54.80;;;19.87;;
9898;SDS011;4988;49.238;6.698;2022-12-18T07:58:03;43.43;;;17.10;;
9898;SDS011;4988;49.238;6.698;2022-12-18T08:00:30;53.25;;;18.75;;
9898;SDS011;4988;49.238;6.698;2022-12-18T08:02:56;54.17;;;18.45;;
9898;SDS011;4988;49.238;6.698;2022-12-18T08:05:24;61.43;;;21.13;;
9898;SDS011;4988;49.238;6.698;2022-12-18T08:07:50;51.47;;;20.50;;
9898;SDS011;4988;49.238;6.698;2022-12-18T08:10:16;56.78;;;20.38;;
9898;SDS011;4988;49.238;6.698;2022-12-18T08:12:42;54.83;;;19.50;;
9898;SDS011;4988;49.238;6.698;2022-12-18T08:15:07;57.07;;;21.80;;
9898;SDS011;4988;49.238;6.698;2022-12-18T08:17:33;58.63;;;20.58;;
9898;SDS011;4988;49.238;6.698;2022-12-18T08:19:59;56.92;;;21.98;;
9898;SDS011;4988;49.238;6.698;2022-12-18T08:22:25;59.03;;;21.33;;
9898;SDS011;4988;49.238;6.698;2022-12-18T08:24:51;67.37;;;22.10;;
9898;SDS011;4988;49.238;6.698;2022-12-18T08:27:16;55.10;;;19.80;;
9898;SDS011;4988;49.238;6.698;2022-12-18T08:29:42;52.70;;;20.27;;
9898;SDS011;4988;49.238;6.698;2022-12-18T08:32:07;59.10;;;21.33;;
9898;SDS011;4988;49.238;6.698;2022-12-18T08:34:33;62.73;;;21.57;;
9898;SDS011;4988;49.238;6.698;2022-12-18T08:36:59;61.42;;;22.23;;
9898;SDS011;4988;49.238;6.698;2022-12-18T08:39:24;57.17;;;20.20;;
9898;SDS011;4988;49.238;6.698;2022-12-18T08:41:49;64.20;;;22.17;;
9898;SDS011;4988;49.238;6.698;2022-12-18T08:44:33;60.60;;;21.55;;
9898;SDS011;4988;49.238;6.698;2022-12-18T08:47:06;57.78;;;22.33;;
9898;SDS011;4988;49.238;6.698;2022-12-18T08:49:32;62.67;;;24.90;;
9898;SDS011;4988;49.238;6.698;2022-12-18T08:51:59;65.20;;;22.75;;
9898;SDS011;4988;49.238;6.698;2022-12-18T08:54:24;58.53;;;22.50;;
9898;SDS011;4988;49.238;6.698;2022-12-18T08:56:50;63.92;;;24.02;;
9898;SDS011;4988;49.238;6.698;2022-12-18T08:59:16;64.43;;;23.07;;
9898;SDS011;4988;49.238;6.698;2022-12-18T09:01:42;65.47;;;24.02;;
9898;SDS011;4988;49.238;6.698;2022-12-18T09:04:11;66.73;;;22.53;;
9898;SDS011;4988;49.238;6.698;2022-12-18T09:06:38;59.85;;;21.55;;
9898;SDS011;4988;49.238;6.698;2022-12-18T09:09:04;70.50;;;24.70;;
9898;SDS011;4988;49.238;6.698;2022-12-18T09:11:30;64.17;;;23.00;;
9898;SDS011;4988;49.238;6.698;2022-12-18T09:13:57;66.55;;;22.77;;
9898;SDS011;4988;49.238;6.698;2022-12-18T09:16:24;67.25;;;21.90;;
9898;SDS011;4988;49.238;6.698;2022-12-18T09:18:51;69.03;;;24.38;;
9898;SDS011;4988;49.238;6.698;2022-12-18T09:21:19;73.22;;;25.85;;
9898;SDS011;4988;49.238;6.698;2022-12-18T09:23:50;66.68;;;24.20;;
9898;SDS011;4988;49.238;6.698;2022-12-18T09:26:16;67.43;;;24.33;;
9898;SDS011;4988;49.238;6.698;2022-12-18T09:28:42;71.70;;;24.63;;
9898;SDS011;4988;49.238;6.698;2022-12-18T09:31:07;75.10;;;26.63;;
9898;SDS011;4988;49.238;6.698;2022-12-18T09:33:36;69.93;;;24.30;;
9898;SDS011;4988;49.238;6.698;2022-12-18T09:36:05;70.72;;;24.70;;
9898;SDS011;4988;49.238;6.698;2022-12-18T09:38:32;75.25;;;25.17;;
9898;SDS011;4988;49.238;6.698;2022-12-18T09:41:13;79.40;;;24.50;;
9898;SDS011;4988;49.238;6.698;2022-12-18T09:43:43;74.07;;;24.90;;
9898;SDS011;4988;49.238;6.698;2022-12-18T09:46:16;67.70;;;25.10;;
9898;SDS011;4988;49.238;6.698;2022-12-18T09:48:48;83.25;;;25.10;;
9898;SDS011;4988;49.238;6.698;2022-12-18T09:51:24;70.53;;;23.10;;
9898;SDS011;4988;49.238;6.698;2022-12-18T09:54:14;79.72;;;24.25;;
9898;SDS011;4988;49.238;6.698;2022-12-18T09:56:43;72.20;;;24.42;;
9898;SDS011;4988;49.238;6.698;2022-12-18T09:59:43;79.00;;;25.17;;
9898;SDS011;4988;49.238;6.698;2022-12-18T10:04:43;74.75;;;24.08;;
9898;SDS011;4988;49.238;6.698;2022-12-18T10:12:32;80.00;;;24.30;;
9898;SDS011;4988;49.238;6.698;2022-12-18T10:20:13;78.32;;;24.73;;
9898;SDS011;4988;49.238;6.698;2022-12-18T10:23:21;75.25;;;23.25;;
9898;SDS011;4988;49.238;6.698;2022-12-18T10:26:23;69.70;;;24.60;;
9898;SDS011;4988;49.238;6.698;2022-12-18T10:28:49;78.75;;;26.08;;
9898;SDS011;4988;49.238;6.698;2022-12-18T10:31:18;74.25;;;24.15;;
9898;SDS011;4988;49.238;6.698;2022-12-18T10:33:46;78.78;;;25.50;;
9898;SDS011;4988;49.238;6.698;2022-12-18T10:36:11;74.67;;;24.10;;
9898;SDS011;4988;49.238;6.698;2022-12-18T10:38:37;75.53;;;24.90;;
9898;SDS011;4988;49.238;6.698;2022-12-18T10:48:33;76.40;;;24.00;;
9898;SDS011;4988;49.238;6.698;2022-12-18T10:51:16;73.40;;;24.65;;
9898;SDS011;4988;49.238;6.698;2022-12-18T10:53:51;75.43;;;25.45;;
9898;SDS011;4988;49.238;6.698;2022-12-18T10:56:25;75.60;;;26.00;;
9898;SDS011;4988;49.238;6.698;2022-12-18T10:58:56;72.00;;;24.40;;
9898;SDS011;4988;49.238;6.698;2022-12-18T11:01:33;82.18;;;26.10;;
9898;SDS011;4988;49.238;6.698;2022-12-18T11:04:27;73.70;;;25.20;;
9898;SDS011;4988;49.238;6.698;2022-12-18T11:09:35;76.30;;;26.00;;
9898;SDS011;4988;49.238;6.698;2022-12-18T11:12:03;82.13;;;25.55;;
9898;SDS011;4988;49.238;6.698;2022-12-18T11:14:46;66.00;;;23.52;;
9898;SDS011;4988;49.238;6.698;2022-12-18T11:17:20;70.80;;;23.20;;
9898;SDS011;4988;49.238;6.698;2022-12-18T11:19:51;83.53;;;26.27;;
9898;SDS011;4988;49.238;6.698;2022-12-18T11:22:25;73.22;;;24.75;;
9898;SDS011;4988;49.238;6.698;2022-12-18T11:24:53;73.35;;;25.15;;
9898;SDS011;4988;49.238;6.698;2022-12-18T11:27:22;75.85;;;25.38;;
9898;SDS011;4988;49.238;6.698;2022-12-18T11:29:49;74.97;;;25.30;;
9898;SDS011;4988;49.238;6.698;2022-12-18T11:32:22;79.38;;;25.67;;
9898;SDS011;4988;49.238;6.698;2022-12-18T11:34:59;79.70;;;24.80;;
9898;SDS011;4988;49.238;6.698;2022-12-18T11:37:29;82.63;;;26.23;;
9898;SDS011;4988;49.238;6.698;2022-12-18T11:40:06;80.50;;;26.42;;
9898;SDS011;4988;49.238;6.698;2022-12-18T11:43:25;85.55;;;25.42;;
9898;SDS011;4988;49.238;6.698;2022-12-18T11:45:49;78.20;;;26.70;;
9898;SDS011;4988;49.238;6.698;2022-12-18T11:48:28;79.22;;;27.35;;
9898;SDS011;4988;49.238;6.698;2022-12-18T11:50:58;72.85;;;25.02;;
9898;SDS011;4988;49.238;6.698;2022-12-18T11:53:27;78.05;;;26.15;;
9898;SDS011;4988;49.238;6.698;2022-12-18T12:01:38;79.15;;;26.23;;
9898;SDS011;4988;49.238;6.698;2022-12-18T12:09:38;78.17;;;26.90;;
9898;SDS011;4988;49.238;6.698;2022-12-18T12:12:29;82.70;;;27.40;;
9898;SDS011;4988;49.238;6.698;2022-12-18T12:18:57;83.82;;;27.30;;
9898;SDS011;4988;49.238;6.698;2022-12-18T12:21:46;79.55;;;25.75;;
9898;SDS011;4988;49.238;6.698;2022-12-18T12:27:03;74.82;;;27.88;;
9898;SDS011;4988;49.238;6.698;2022-12-18T12:29:46;78.15;;;26.52;;
9898;SDS011;4988;49.238;6.698;2022-12-18T12:37:40;71.72;;;26.45;;
9898;SDS011;4988;49.238;6.698;2022-12-18T12:40:22;83.53;;;27.10;;
9898;SDS011;4988;49.238;6.698;2022-12-18T12:42:55;86.97;;;28.40;;
9898;SDS011;4988;49.238;6.698;2022-12-18T12:45:47;88.05;;;29.02;;
9898;SDS011;4988;49.238;6.698;2022-12-18T12:48:43;86.82;;;27.92;;
9898;SDS011;4988;49.238;6.698;2022-12-18T12:53:48;78.07;;;28.27;;
9898;SDS011;4988;49.238;6.698;2022-12-18T12:56:22;80.53;;;25.73;;
9898;SDS011;4988;49.238;6.698;2022-12-18T12:59:13;78.20;;;27.80;;
9898;SDS011;4988;49.238;6.698;2022-12-18T13:02:28;77.57;;;27.05;;
9898;SDS011;4988;49.238;6.698;2022-12-18T13:05:31;82.65;;;27.80;;
9898;SDS011;4988;49.238;6.698;2022-12-18T13:08:06;78.35;;;27.45;;
9898;SDS011;4988;49.238;6.698;2022-12-18T13:10:36;77.45;;;27.42;;
9898;SDS011;4988;49.238;6.698;2022-12-18T13:20:44;69.22;;;26.40;;
9898;SDS011;4988;49.238;6.698;2022-12-18T13:23:19;76.22;;;25.70;;
9898;SDS011;4988;49.238;6.698;2022-12-18T13:25:45;79.53;;;27.13;;
9898;SDS011;4988;49.238;6.698;2022-12-18T13:28:20;75.05;;;26.60;;
9898;SDS011;4988;49.238;6.698;2022-12-18T13:30:50;75.18;;;26.48;;
9898;SDS011;4988;49.238;6.698;2022-12-18T13:33:34;72.05;;;26.05;;
9898;SDS011;4988;49.238;6.698;2022-12-18T13:36:12;71.07;;;25.92;;
9898;SDS011;4988;49.238;6.698;2022-12-18T13:38:47;80.80;;;26.42;;
9898;SDS011;4988;49.238;6.698;2022-12-18T13:43:45;78.80;;;26.77;;
9898;SDS011;4988;49.238;6.698;2022-12-18T13:48:56;76.07;;;26.15;;
9898;SDS011;4988;49.238;6.698;2022-12-18T13:51:22;77.03;;;25.83;;
9898;SDS011;4988;49.238;6.698;2022-12-18T13:56:16;76.63;;;24.75;;
9898;SDS011;4988;49.238;6.698;2022-12-18T14:01:33;71.53;;;25.85;;
9898;SDS011;4988;49.238;6.698;2022-12-18T14:04:44;70.20;;;25.03;;
9898;SDS011;4988;49.238;6.698;2022-12-18T14:06:49;71.82;;;26.92;;
9898;SDS011;4988;49.238;6.698;2022-12-18T14:09:27;80.07;;;27.20;;
9898;SDS011;4988;49.238;6.698;2022-12-18T14:11:56;71.75;;;25.38;;
9898;SDS011;4988;49.238;6.698;2022-12-18T14:14:46;77.38;;;26.13;;
9898;SDS011;4988;49.238;6.698;2022-12-18T14:17:14;71.88;;;26.73;;
9898;SDS011;4988;49.238;6.698;2022-12-18T14:19:47;69.03;;;24.98;;
9898;SDS011;4988;49.238;6.698;2022-12-18T14:22:21;73.00;;;26.33;;
9898;SDS011;4988;49.238;6.698;2022-12-18T14:28:02;72.55;;;26.05;;
9898;SDS011;4988;49.238;6.698;2022-12-18T14:30:44;71.20;;;25.90;;
9898;SDS011;4988;49.238;6.698;2022-12-18T14:33:11;86.55;;;29.85;;
9898;SDS011;4988;49.238;6.698;2022-12-18T14:36:13;80.00;;;29.75;;
9898;SDS011;4988;49.238;6.698;2022-12-18T14:38:40;77.90;;;27.58;;
9898;SDS011;4988;49.238;6.698;2022-12-18T14:41:12;75.70;;;27.93;;
9898;SDS011;4988;49.238;6.698;2022-12-18T14:43:40;78.97;;;28.75;;
9898;SDS011;4988;49.238;6.698;2022-12-18T14:49:01;74.15;;;26.63;;
9898;SDS011;4988;49.238;6.698;2022-12-18T14:51:28;79.82;;;28.67;;
9898;SDS011;4988;49.238;6.698;2022-12-18T14:54:04;71.47;;;28.15;;
9898;SDS011;4988;49.238;6.698;2022-12-18T14:56:46;70.45;;;27.05;;
9898;SDS011;4988;49.238;6.698;2022-12-18T15:04:25;72.00;;;25.48;;
9898;SDS011;4988;49.238;6.698;2022-12-18T15:09:43;77.78;;;27.65;;
9898;SDS011;4988;49.238;6.698;2022-12-18T15:15:01;66.68;;;25.90;;
9898;SDS011;4988;49.238;6.698;2022-12-18T15:17:28;73.78;;;28.65;;
9898;SDS011;4988;49.238;6.698;2022-12-18T15:19:58;77.33;;;27.87;;
9898;SDS011;4988;49.238;6.698;2022-12-18T15:24:53;74.75;;;29.10;;
9898;SDS011;4988;49.238;6.698;2022-12-18T15:27:21;73.20;;;27.08;;
9898;SDS011;4988;49.238;6.698;2022-12-18T15:32:33;82.10;;;30.45;;
9898;SDS011;4988;49.238;6.698;2022-12-18T15:35:41;82.10;;;30.23;;
9898;SDS011;4988;49.238;6.698;2022-12-18T15:37:49;80.25;;;30.67;;
9898;SDS011;4988;49.238;6.698;2022-12-18T15:40:20;82.07;;;32.03;;
9898;SDS011;4988;49.238;6.698;2022-12-18T15:42:47;77.00;;;30.65;;
9898;SDS011;4988;49.238;6.698;2022-12-18T15:45:32;77.43;;;31.10;;
9898;SDS011;4988;49.238;6.698;2022-12-18T15:47:58;79.18;;;29.50;;
9898;SDS011;4988;49.238;6.698;2022-12-18T15:50:23;81.63;;;29.77;;
9898;SDS011;4988;49.238;6.698;2022-12-18T15:52:50;71.83;;;28.30;;
9898;SDS011;4988;49.238;6.698;2022-12-18T15:55:19;87.30;;;31.05;;
9898;SDS011;4988;49.238;6.698;2022-12-18T15:58:05;80.63;;;28.30;;
9898;SDS011;4988;49.238;6.698;2022-12-18T16:00:31;87.05;;;32.50;;
9898;SDS011;4988;49.238;6.698;2022-12-18T16:02:59;85.07;;;31.58;;
9898;SDS011;4988;49.238;6.698;2022-12-18T16:05:24;82.53;;;30.53;;
9898;SDS011;4988;49.238;6.698;2022-12-18T16:07:51;89.50;;;32.35;;
9898;SDS011;4988;49.238;6.698;2022-12-18T16:10:16;83.00;;;30.53;;
9898;SDS011;4988;49.238;6.698;2022-12-18T16:12:42;77.00;;;28.43;;
9898;SDS011;4988;49.238;6.698;2022-12-18T16:15:10;79.73;;;30.13;;
9898;SDS011;4988;49.238;6.698;2022-12-18T16:17:38;75.90;;;28.48;;
9898;SDS011;4988;49.238;6.698;2022-12-18T16:20:04;75.45;;;28.40;;
9898;SDS011;4988;49.238;6.698;2022-12-18T16:22:31;73.32;;;28.25;;
9898;SDS011;4988;49.238;6.698;2022-12-18T16:24:57;69.03;;;27.33;;
9898;SDS011;4988;49.238;6.698;2022-12-18T16:27:23;69.40;;;26.93;;
9898;SDS011;4988;49.238;6.698;2022-12-18T16:29:57;74.25;;;25.95;;
9898;SDS011;4988;49.238;6.698;2022-12-18T16:32:23;61.53;;;25.27;;
9898;SDS011;4988;49.238;6.698;2022-12-18T16:34:48;72.13;;;24.97;;
9898;SDS011;4988;49.238;6.698;2022-12-18T16:37:14;73.70;;;25.88;;
9898;SDS011;4988;49.238;6.698;2022-12-18T16:39:41;74.88;;;27.50;;
9898;SDS011;4988;49.238;6.698;2022-12-18T16:42:10;68.07;;;26.70;;
9898;SDS011;4988;49.238;6.698;2022-12-18T16:44:39;73.15;;;27.42;;
9898;SDS011;4988;49.238;6.698;2022-12-18T16:47:05;71.45;;;27.45;;
9898;SDS011;4988;49.238;6.698;2022-12-18T16:49:30;69.03;;;26.77;;
9898;SDS011;4988;49.238;6.698;2022-12-18T16:51:56;75.20;;;26.53;;
9898;SDS011;4988;49.238;6.698;2022-12-18T16:54:21;67.13;;;25.27;;